Airfield :
LOGIN :

Register | Disclaimer

   EN    FR    IT 

 










Legend :    VFR   Marginal VFR   IFR   Intensive IFR   Very Intensive IFR
Visi :
Ceiling :
>= 8 km
>= 3000ft
5 to 8 km
1000 to 3000 ft
1500m to 5 km
500 to 1000 ft
800 to 1500m
200 to 500 ft
< 800m
< 200 ft
Symbols :   Thunderstorms  Fog  Heavy snow  Heavy precipitations  Wind > 20 kt
SIGMETs :     Misc.  Thunderstorms  Icing  Turbulence  Mountain Waves  Volcanic Ashes






- Airport Elevation : 24 ft
- IATA code : IBZ


LEIB - Ibiza

CURRENT METAR :
  • 191100Z 23016KT 9999 SCT016 18/12 Q1018 NOSIG

EXPIRED METARs :
  • 191030Z 24016KT 220V280 9999 SCT020 18/13 Q1018 NOSIG
  • 191000Z 23014KT 200V270 9999 FEW020 18/11 Q1018 NOSIG
  • 190930Z 23015KT 9999 FEW020 17/12 Q1018 NOSIG
  • 190900Z 23014KT 190V250 9999 FEW020 17/12 Q1018 NOSIG
  • 190830Z 22013KT 190V250 9999 FEW020 17/12 Q1018 NOSIG

TAF TAF LEIB
Valid from the 19 at 09:00 until the 20 at 09:00 UTC


190800Z 1909/2009 23014KT 9999 FEW020 TX16/1912Z TN11/2005Z
BECMG 1916/1919 20006KT



MET'MAP, your aeronautical weather chart ! - Copyright ORBIFLY December 2007 - Disclaimer

ORBIFLY MET'MAP TEAM :

Programming & Development : Alexandra Zaïnal
Concept & original design : Baudouin d'Aumeries
Assistance for programming : Marc-Olivier Méhu
Technical & hardware support : Manuel Goepfert

Contact : metmap@orbifly.com




SOURCES & CREDITS :

   NOAA